Time;durP1;ratioP1;P1;durP2;ratioP2;P2;SDS_P1;SDS_P2;PMS_P1;PMS_P2;Temp;Humidity;BMP_temperature;BMP_pressure;BME280_temperature;BME280_humidity;BME280_pressure;Samples;Min_cycle;Max_cycle;Signal;HPM_P1;HPM_P2
2022/08/11 00:01:35;;;;;;;2.22;1.70;;;;;;;17.60;87.97;101432.22;7678211;23;20059;-87
2022/08/11 00:04:38;;;;;;;3.15;1.75;;;;;;;17.57;87.46;101435.94;7648988;23;20032;-86
2022/08/11 00:07:44;;;;;;;4.15;1.52;;;;;;;17.56;87.67;101428.22;7700604;23;20104;-87
2022/08/11 00:10:55;;;;;;;4.32;1.80;;;;;;;17.52;87.69;101426.88;7702191;23;20052;-87
2022/08/11 00:13:58;;;;;;;2.85;1.70;;;;;;;17.49;87.79;101429.75;7674808;23;20113;-87
2022/08/11 00:17:14;;;;;;;1.95;1.67;;;;;;;17.49;87.06;101419.28;7701682;23;20021;-87
2022/08/11 00:20:18;;;;;;;2.42;1.70;;;;;;;17.43;87.72;101420.69;7701459;23;20119;-86
2022/08/11 00:23:20;;;;;;;3.13;2.00;;;;;;;17.40;89.03;101418.38;7700830;23;20020;-87
2022/08/11 00:26:25;;;;;;;3.00;1.70;;;;;;;17.39;89.59;101422.78;7703961;23;20027;-87
2022/08/11 00:29:27;;;;;;;3.05;2.13;;;;;;;17.36;89.63;101424.84;7704880;23;20362;-87
2022/08/11 00:32:31;;;;;;;2.45;1.90;;;;;;;17.28;89.44;101430.81;7704581;23;20023;-86
2022/08/11 00:35:33;;;;;;;4.60;1.92;;;;;;;17.27;90.18;101426.56;7704817;23;20028;-87
2022/08/11 00:39:03;;;;;;;2.72;2.05;;;;;;;17.23;90.77;101418.16;7704642;23;20067;-87
2022/08/11 00:42:24;;;;;;;2.50;1.90;;;;;;;17.19;90.79;101423.81;7703071;23;20190;-87
2022/08/11 00:45:36;;;;;;;3.45;1.80;;;;;;;17.18;90.18;101422.16;7704739;23;20127;-87
2022/08/11 00:48:48;;;;;;;2.83;2.00;;;;;;;17.13;90.09;101422.59;7704952;23;20025;-87
2022/08/11 00:52:13;;;;;;;4.10;1.65;;;;;;;17.15;90.80;101427.69;7703922;23;20021;-87
2022/08/11 00:55:41;;;;;;;2.30;1.90;;;;;;;17.15;90.66;101427.69;7588354;23;20610;-87
2022/08/11 00:59:11;;;;;;;2.33;1.90;;;;;;;17.14;89.82;101420.78;7587328;23;20034;-87
2022/08/11 01:03:03;;;;;;;2.95;2.05;;;;;;;17.14;88.81;101424.25;7587386;23;20087;-87
2022/08/11 01:06:31;;;;;;;3.92;2.40;;;;;;;17.15;88.43;101423.28;7588790;23;20033;-87
2022/08/11 01:09:40;;;;;;;2.42;1.70;;;;;;;17.16;88.70;101424.09;7563939;23;20026;-87
2022/08/11 01:13:12;;;;;;;3.08;1.88;;;;;;;17.16;87.95;101424.09;7588105;23;20036;-87
2022/08/11 01:16:51;;;;;;;3.08;2.03;;;;;;;17.16;88.33;101431.94;7588804;23;20026;-87
2022/08/11 01:20:21;;;;;;;3.17;2.08;;;;;;;17.15;89.08;101427.69;7589304;23;20125;-87
2022/08/11 01:24:21;;;;;;;3.40;2.10;;;;;;;17.17;87.69;101433.63;7589203;23;20026;-86
2022/08/11 01:27:41;;;;;;;2.83;2.08;;;;;;;17.19;87.89;101431.66;7589214;23;20029;-86
2022/08/11 01:30:53;;;;;;;2.40;2.13;;;;;;;17.14;87.63;101426.88;7589553;23;20057;-87
2022/08/11 01:34:16;;;;;;;2.88;1.98;;;;;;;17.12;88.59;101431.41;7703618;23;20032;-86
2022/08/11 01:37:58;;;;;;;2.35;2.00;;;;;;;17.08;88.76;101429.22;7704329;23;20025;-87
2022/08/11 01:44:36;;;;;;;5.35;2.15;;;;;;;17.06;88.21;101431.97;7676547;23;20355;-87
2022/08/11 01:45:07;;;;;;;6.15;2.20;;;;;;;17.04;90.11;101436.50;7702905;23;20022;-87
2022/08/11 01:48:28;;;;;;;5.18;2.60;;;;;;;16.85;90.93;101441.78;7703252;23;20088;-87
2022/08/11 01:52:01;;;;;;;4.25;2.30;;;;;;;16.68;89.62;101435.44;7677050;23;20032;-86
2022/08/11 01:55:36;;;;;;;2.78;2.35;;;;;;;16.48;91.00;101435.44;7551399;23;20066;-86
2022/08/11 01:58:47;;;;;;;2.95;2.45;;;;;;;16.30;92.01;101437.09;7551297;23;20118;-87
2022/08/11 02:02:17;;;;;;;3.50;2.60;;;;;;;16.15;93.62;101436.66;7551331;23;20449;-86
2022/08/11 02:05:38;;;;;;;4.40;2.38;;;;;;;16.04;94.30;101436.75;7551318;23;20037;-86
2022/08/11 02:08:57;;;;;;;4.00;2.42;;;;;;;15.90;94.16;101437.97;7551641;23;20038;-86
2022/08/11 02:12:26;;;;;;;3.78;2.75;;;;;;;15.86;95.17;101436.59;7552293;23;20516;-86
2022/08/11 02:15:49;;;;;;;4.60;2.90;;;;;;;15.79;95.33;101432.84;7552080;23;20118;-86
2022/08/11 02:26:40;;;;;;;4.15;2.67;;;;;;;15.66;97.12;101433.06;7550683;23;20031;-86
2022/08/11 02:30:06;;;;;;;5.90;2.90;;;;;;;15.61;98.22;101424.81;7552569;23;20033;-86
2022/08/11 02:33:26;;;;;;;2.85;2.60;;;;;;;15.56;96.93;101426.97;7691868;23;20099;-86
2022/08/11 02:36:42;;;;;;;3.90;2.22;;;;;;;15.53;97.13;101428.06;7699487;23;20399;-86
2022/08/11 02:40:30;;;;;;;4.57;2.65;;;;;;;15.51;97.92;101430.78;7699960;23;20016;-86
2022/08/11 02:43:37;;;;;;;3.53;2.67;;;;;;;15.51;100.00;101435.19;7548318;23;20101;-86
2022/08/11 02:46:55;;;;;;;3.42;2.35;;;;;;;15.49;99.30;101430.09;7551237;23;20030;-87
2022/08/11 02:50:14;;;;;;;2.63;2.42;;;;;;;15.50;99.17;101431.78;7551275;23;20444;-87
2022/08/11 02:53:29;;;;;;;4.70;2.38;;;;;;;15.47;98.64;101425.97;7550165;23;20022;-87
2022/08/11 02:56:43;;;;;;;4.47;2.60;;;;;;;15.47;99.77;101436.41;7551196;23;20026;-87
2022/08/11 03:00:16;;;;;;;4.68;2.33;;;;;;;15.47;100.00;101426.78;7549044;23;20065;-86
2022/08/11 03:03:26;;;;;;;4.18;2.25;;;;;;;15.49;100.00;101432.72;7410574;24;20519;-86
2022/08/11 03:06:51;;;;;;;3.95;2.38;;;;;;;15.50;100.00;101429.16;7409340;24;20658;-87
2022/08/11 03:10:01;;;;;;;3.22;2.47;;;;;;;15.52;100.00;101436.84;7410538;24;20104;-86
2022/08/11 03:17:06;;;;;;;3.03;2.20;;;;;;;15.52;99.42;101431.63;7409180;24;20203;-87
2022/08/11 03:20:24;;;;;;;3.95;2.40;;;;;;;15.51;100.00;101429.97;7465754;23;20041;-87
2022/08/11 03:24:24;;;;;;;3.00;2.30;;;;;;;15.50;100.00;101433.53;7550611;23;20037;-86
2022/08/11 03:27:26;;;;;;;4.22;2.05;;;;;;;15.48;100.00;101431.06;7409192;24;20036;-87
2022/08/11 03:30:45;;;;;;;2.88;2.30;;;;;;;15.45;100.00;101435.69;7386597;24;20040;-87
2022/08/11 03:34:02;;;;;;;5.07;2.15;;;;;;;15.43;100.00;101435.03;7410668;24;20032;-86
2022/08/11 03:37:56;;;;;;;2.80;2.10;;;;;;;15.40;100.00;101432.66;7410458;24;20605;-86
2022/08/11 03:41:46;;;;;;;3.88;2.05;;;;;;;15.39;100.00;101436.25;7513187;23;20054;-86
2022/08/11 03:45:27;;;;;;;4.80;2.25;;;;;;;15.38;100.00;101437.19;7516602;23;20058;-86
2022/08/11 03:48:50;;;;;;;3.03;2.10;;;;;;;15.37;100.00;101432.94;7515204;23;20026;-86
2022/08/11 03:52:04;;;;;;;4.45;2.40;;;;;;;15.36;100.00;101437.31;7515851;23;20026;-86
2022/08/11 03:55:36;;;;;;;3.55;2.22;;;;;;;15.37;100.00;101443.38;7515051;23;20050;-86
2022/08/11 03:58:47;;;;;;;2.67;2.15;;;;;;;15.35;100.00;101435.66;7515484;23;20576;-86
2022/08/11 04:02:27;;;;;;;;;;;;;;;15.33;100.00;101432.38;7540466;23;20029;-87
2022/08/11 04:06:08;;;;;;;2.60;2.30;;;;;;;15.31;100.00;101430.84;7551090;23;20045;-87
2022/08/11 04:09:53;;;;;;;3.85;2.28;;;;;;;15.29;100.00;101430.97;7551399;23;20034;-86
2022/08/11 04:13:32;;;;;;;4.18;2.35;;;;;;;15.28;100.00;101429.34;7551654;23;20026;-87
2022/08/11 04:16:45;;;;;;;4.60;2.17;;;;;;;15.25;100.00;101437.41;7527503;23;20023;-87
2022/08/11 04:19:53;;;;;;;3.45;2.45;;;;;;;15.23;100.00;101432.31;7527427;23;20037;-87
2022/08/11 04:23:10;;;;;;;4.95;2.22;;;;;;;15.26;100.00;101433.84;7551427;23;20038;-87
2022/08/11 04:27:12;;;;;;;2.58;2.25;;;;;;;15.27;100.00;101431.09;7550138;23;20453;-86
2022/08/11 04:30:47;;;;;;;3.80;2.30;;;;;;;15.26;100.00;101426.84;7518472;23;20041;-87
2022/08/11 04:34:12;;;;;;;8.20;2.30;;;;;;;15.25;100.00;101429.56;7444781;23;20098;-86
2022/08/11 04:37:33;;;;;;;3.35;2.25;;;;;;;15.26;100.00;101431.25;7539673;23;20093;-87
2022/08/11 04:41:20;;;;;;;3.35;2.30;;;;;;;15.26;100.00;101431.25;7550925;23;20419;-87
2022/08/11 04:44:54;;;;;;;2.75;2.45;;;;;;;15.27;100.00;101431.09;7444712;23;20031;-87
2022/08/11 05:03:39;;;;;;;6.05;3.00;;;;;;;15.39;100.00;101431.03;7444581;23;20131;-86
2022/08/11 05:07:18;;;;;;;5.95;2.75;;;;;;;15.42;100.00;101430.75;7445408;23;20206;-87
2022/08/11 05:11:05;;;;;;;5.15;2.45;;;;;;;15.44;100.00;101436.69;7492523;23;20440;-87
2022/08/11 05:35:03;;;;;;;4.13;2.72;;;;;;;15.76;100.00;101439.16;7551992;23;20129;-87
2022/08/11 05:58:58;;;;;;;3.20;2.35;;;;;;;16.10;100.00;101437.06;7700863;23;20397;-87
2022/08/11 06:02:06;;;;;;;4.25;2.65;;;;;;;16.17;100.00;101442.56;7700423;23;20286;-87
2022/08/11 06:05:08;;;;;;;3.25;2.10;;;;;;;16.21;100.00;101441.34;7700694;23;20027;-87
2022/08/11 06:08:12;;;;;;;3.00;2.25;;;;;;;16.28;100.00;101442.44;7672971;23;20020;-87
2022/08/11 06:11:18;;;;;;;5.95;2.50;;;;;;;16.35;100.00;101450.56;7700923;23;20017;-87
2022/08/11 06:14:43;;;;;;;4.50;2.20;;;;;;;16.42;100.00;101441.22;7700493;23;20031;-87
2022/08/11 06:17:47;;;;;;;2.65;1.90;;;;;;;16.47;100.00;101444.25;7699232;23;20051;-87
2022/08/11 06:20:55;;;;;;;2.45;2.00;;;;;;;16.53;100.00;101441.06;7673763;23;20020;-87
2022/08/11 06:23:58;;;;;;;2.97;2.10;;;;;;;16.62;100.00;101446.44;7672873;23;20115;-87
2022/08/11 06:27:02;;;;;;;5.28;2.15;;;;;;;16.65;100.00;101443.56;7700749;23;20666;-88
2022/08/11 06:30:33;;;;;;;2.40;2.13;;;;;;;16.74;98.75;101440.09;7700833;23;20021;-87
2022/08/11 06:33:47;;;;;;;2.38;2.17;;;;;;;16.82;98.37;101435.06;7700750;23;20040;-87
2022/08/11 06:37:18;;;;;;;5.28;2.17;;;;;;;16.92;98.55;101429.81;7648311;23;20016;-87
2022/08/11 06:40:40;;;;;;;3.50;2.13;;;;;;;16.97;98.92;101436.25;7697115;23;20292;-87
2022/08/11 06:44:21;;;;;;;2.97;2.25;;;;;;;17.04;100.00;101433.06;7700421;23;20016;-87
2022/08/11 06:47:28;;;;;;;4.32;2.20;;;;;;;17.12;96.77;101439.25;7673027;23;20190;-87
2022/08/11 06:54:00;;;;;;;3.55;2.08;;;;;;;17.35;96.98;101444.97;7673077;23;20027;-87
2022/08/11 07:00:33;;;;;;;5.00;1.83;;;;;;;17.46;96.29;101443.16;7699965;23;20048;-88
2022/08/11 07:03:42;;;;;;;3.30;2.00;;;;;;;17.53;93.35;101441.59;7674515;23;20047;-87
2022/08/11 07:17:24;;;;;;;2.90;2.17;;;;;;;17.91;88.47;101450.28;7652821;23;20028;-87
2022/08/11 07:30:42;;;;;;;3.08;2.10;;;;;;;18.40;83.52;101448.16;7672704;23;20103;-87
2022/08/11 07:33:49;;;;;;;3.45;2.08;;;;;;;18.47;83.40;101450.03;7699997;23;20020;-88
2022/08/11 07:37:16;;;;;;;2.53;1.65;;;;;;;18.60;81.92;101454.06;7673426;23;20555;-88
2022/08/11 07:40:26;;;;;;;4.38;2.10;;;;;;;18.74;80.66;101461.41;7699246;23;20021;-87
2022/08/11 07:43:28;;;;;;;5.82;2.53;;;;;;;18.82;80.79;101455.44;7699654;23;20024;-88
2022/08/11 07:53:14;;;;;;;5.50;2.70;;;;;;;19.14;78.64;101449.59;7699818;23;20028;-87
2022/08/11 07:56:18;;;;;;;3.70;2.15;;;;;;;19.21;78.01;101447.19;7699138;23;20055;-87
2022/08/11 08:20:29;;;;;;;5.18;2.50;;;;;;;19.98;74.53;101456.72;7702730;23;20020;-88
2022/08/11 08:23:31;;;;;;;4.78;2.75;;;;;;;20.08;73.68;101451.34;7676126;23;20021;-87
2022/08/11 08:33:27;;;;;;;6.05;2.45;;;;;;;20.50;71.41;101442.53;7700842;23;20078;-88
2022/08/11 08:36:29;;;;;;;7.47;2.67;;;;;;;20.67;71.05;101453.06;7701692;23;20024;-88
2022/08/11 08:39:38;;;;;;;5.47;2.55;;;;;;;20.82;69.87;101447.00;7701719;23;20017;-88
2022/08/11 08:42:46;;;;;;;3.38;2.15;;;;;;;20.98;68.41;101445.31;7675995;23;20021;-88
2022/08/11 08:45:54;;;;;;;5.40;2.22;;;;;;;21.13;68.61;101448.09;7700896;23;20020;-88
2022/08/11 08:49:00;;;;;;;6.82;2.40;;;;;;;21.26;67.76;101433.41;7701425;23;20462;-88
2022/08/11 08:52:05;;;;;;;3.78;2.65;;;;;;;21.40;67.61;101439.00;7701411;23;20030;-88
2022/08/11 08:55:29;;;;;;;6.30;2.20;;;;;;;21.53;67.42;101436.63;7701869;23;20028;-88
2022/08/11 08:58:35;;;;;;;4.03;2.60;;;;;;;21.67;66.68;101438.56;7675181;23;20016;-88
2022/08/11 09:01:54;;;;;;;3.65;2.47;;;;;;;21.87;64.53;101433.69;7701178;23;20066;-88
2022/08/11 09:04:57;;;;;;;7.63;2.45;;;;;;;22.03;63.63;101438.03;7700756;23;20043;-88
2022/08/11 09:08:00;;;;;;;4.03;2.40;;;;;;;22.15;61.01;101426.09;7674971;23;20020;-88
2022/08/11 09:18:08;;;;;;;6.22;2.40;;;;;;;22.49;59.37;101419.59;7700566;23;20086;-88
2022/08/11 09:21:14;;;;;;;4.85;2.10;;;;;;;22.66;58.77;101424.72;7700410;23;20026;-88
2022/08/11 09:27:59;;;;;;;2.67;2.10;;;;;;;22.86;54.03;101417.16;7700968;23;20021;-88
2022/08/11 09:31:01;;;;;;;4.40;2.25;;;;;;;23.02;53.67;101418.81;7674503;23;20020;-88
2022/08/11 09:34:03;;;;;;;6.60;2.50;;;;;;;23.16;54.15;101405.63;7699522;23;20016;-88
2022/08/11 09:40:50;;;;;;;5.65;2.40;;;;;;;23.49;50.07;101407.03;7658016;23;20024;-88
2022/08/11 09:47:21;;;;;;;3.25;2.33;;;;;;;23.70;48.18;101391.25;7702098;23;20028;-89
2022/08/11 09:50:23;;;;;;;5.07;2.42;;;;;;;23.82;47.23;101397.69;7673382;23;20022;-89
2022/08/11 09:53:35;;;;;;;4.05;2.08;;;;;;;23.90;47.54;101396.78;7701740;23;20102;-89
2022/08/11 10:00:08;;;;;;;3.50;2.10;;;;;;;24.06;47.27;101395.69;7700849;23;20020;-89
2022/08/11 10:03:20;;;;;;;4.75;2.30;;;;;;;24.21;46.30;101385.88;7700488;23;20922;-89
2022/08/11 10:10:00;;;;;;;7.95;2.95;;;;;;;24.60;45.70;101370.53;7700024;23;20028;-89
2022/08/11 10:13:06;;;;;;;4.80;2.00;;;;;;;24.73;42.50;101372.44;7701220;23;20102;-89
2022/08/11 10:16:34;;;;;;;2.72;1.92;;;;;;;24.84;43.71;101372.69;7678566;23;20159;-89
2022/08/11 10:19:37;;;;;;;5.57;2.50;;;;;;;24.96;43.86;101359.75;7674085;23;20382;-89
2022/08/11 10:27:03;;;;;;;;;;;;;;;;;;;;;
2022/08/11 10:36:51;;;;;;;2.80;2.00;;;;;;;25.63;40.51;101349.41;7585665;23;20026;-89
2022/08/11 10:39:55;;;;;;;3.35;2.30;;;;;;;25.62;39.96;101342.50;7584600;23;20355;-90
2022/08/11 10:43:02;;;;;;;3.28;2.20;;;;;;;25.67;40.52;101342.72;7585276;23;20033;-89
2022/08/11 10:49:31;;;;;;;3.03;1.95;;;;;;;25.94;40.58;101340.94;7584255;23;20025;-85
2022/08/11 10:59:19;;;;;;;4.13;1.95;;;;;;;26.23;38.65;101339.72;7583684;23;20033;-86
2022/08/11 11:02:23;;;;;;;5.45;2.25;;;;;;;26.33;39.84;101337.44;7583921;23;20025;-86
2022/08/11 11:05:29;;;;;;;5.10;2.10;;;;;;;26.56;39.82;101341.56;7605582;23;20347;-87
2022/08/11 11:19:05;;;;;;;2.38;2.17;;;;;;;26.70;37.53;101313.94;7696524;23;20020;-87
2022/08/11 11:26:05;;;;;;;5.00;1.98;;;;;;;26.85;37.90;101316.34;7700921;23;20036;-87
2022/08/11 11:29:44;;;;;;;2.58;2.00;;;;;;;26.95;37.67;101313.22;7700409;23;20502;-87
2022/08/11 11:33:19;;;;;;;3.38;2.00;;;;;;;27.15;38.90;101310.50;7701110;23;20020;-87
2022/08/11 11:36:39;;;;;;;2.60;2.17;;;;;;;27.50;37.74;101308.28;7702000;23;20056;-87
2022/08/11 11:39:42;;;;;;;2.53;1.95;;;;;;;27.63;36.04;101304.75;7701645;23;20021;-89
2022/08/11 11:42:45;;;;;;;2.90;2.00;;;;;;;27.88;38.19;101304.78;7701815;23;20584;-87
2022/08/11 11:45:47;;;;;;;2.88;1.88;;;;;;;28.10;37.59;101310.53;7703857;23;20021;-87
2022/08/11 11:48:49;;;;;;;2.17;1.85;;;;;;;28.16;35.01;101300.84;7703532;23;20020;-87
2022/08/11 11:51:54;;;;;;;4.28;2.00;;;;;;;28.14;33.91;101299.22;7677957;23;20451;-86
2022/08/11 11:54:57;;;;;;;3.90;2.20;;;;;;;28.14;36.54;101301.88;7704720;23;20023;-87
2022/08/11 12:01:24;;;;;;;3.55;2.08;;;;;;;28.51;36.26;101288.63;7702809;23;20025;-87
2022/08/11 12:04:27;;;;;;;2.97;1.90;;;;;;;28.67;34.28;101295.25;7701835;23;20463;-88
2022/08/11 12:14:35;;;;;;;4.00;2.28;;;;;;;29.40;35.30;101286.31;7702830;23;20021;-87
2022/08/11 12:17:38;;;;;;;4.63;2.33;;;;;;;29.57;34.39;101285.66;7704586;23;20471;-86
2022/08/11 12:20:42;;;;;;;4.95;2.10;;;;;;;29.63;31.45;101274.03;7703833;23;20108;-87
2022/08/11 12:27:22;;;;;;;2.40;2.20;;;;;;;29.89;34.02;101264.00;7676586;23;20040;-87
2022/08/11 12:30:27;;;;;;;4.17;1.93;;;;;;;30.16;33.65;101270.53;7703330;23;20266;-87
2022/08/11 12:33:30;;;;;;;3.60;2.10;;;;;;;30.40;33.16;101265.97;7652266;23;20789;-87
2022/08/11 12:36:38;;;;;;;2.95;2.05;;;;;;;30.56;31.80;101264.44;7702327;23;20020;-87
2022/08/11 12:47:00;;;;;;;3.60;2.22;;;;;;;30.98;32.47;101242.00;7702401;23;20031;-87
2022/08/11 12:53:28;;;;;;;3.78;2.15;;;;;;;31.12;30.13;101225.41;7702839;23;20140;-88
2022/08/11 13:06:53;;;;;;;1.92;1.80;;;;;;;31.68;29.18;101220.19;7701053;23;20020;-90
2022/08/11 13:09:56;;;;;;;4.07;2.20;;;;;;;31.86;29.30;101213.75;7703710;23;20016;-89
2022/08/11 13:12:58;;;;;;;2.85;2.15;;;;;;;32.03;29.80;101213.75;7676518;23;20023;-89
2022/08/11 13:16:00;;;;;;;2.55;1.92;;;;;;;32.18;28.37;101213.94;7676257;23;20104;-90
2022/08/11 13:19:02;;;;;;;5.57;1.98;;;;;;;32.31;29.18;101210.06;7703050;23;20028;-90
2022/08/11 13:22:06;;;;;;;2.70;2.00;;;;;;;32.38;29.12;101207.22;7702111;23;20094;-94
2022/08/11 13:25:08;;;;;;;4.18;2.10;;;;;;;32.50;29.22;101196.38;7701289;23;20024;-94
2022/08/11 13:28:20;;;;;;;3.15;2.10;;;;;;;32.59;27.85;101192.97;7703683;23;20027;-94
2022/08/11 13:31:22;;;;;;;4.90;2.25;;;;;;;32.53;27.53;101194.00;7703360;23;20461;-93
2022/08/11 13:34:26;;;;;;;3.58;2.10;;;;;;;32.66;28.72;101189.31;7701894;23;20048;-93
2022/08/11 13:37:29;;;;;;;5.97;2.15;;;;;;;32.76;29.94;101192.88;7702345;23;20020;-93
2022/08/11 13:40:54;;;;;;;4.38;2.20;;;;;;;32.88;27.75;101189.25;7701311;23;20455;-93
2022/08/11 13:43:58;;;;;;;5.85;1.90;;;;;;;32.83;27.02;101193.50;7702497;23;20044;-94
2022/08/11 13:47:06;;;;;;;3.28;2.05;;;;;;;32.82;28.88;101191.91;7703006;23;20020;-92
2022/08/11 13:50:11;;;;;;;3.10;2.13;;;;;;;32.93;27.45;101183.94;7701811;23;20147;-93
2022/08/11 13:53:18;;;;;;;4.40;2.30;;;;;;;32.99;27.09;101183.75;7702433;23;20797;-92
2022/08/11 13:56:23;;;;;;;4.55;2.20;;;;;;;33.13;28.83;101178.78;7675308;23;20486;-92
2022/08/11 13:59:26;;;;;;;2.95;1.90;;;;;;;33.29;27.78;101184.25;7702851;23;20028;-92
2022/08/11 14:02:32;;;;;;;3.83;2.08;;;;;;;33.38;27.39;101180.84;7701565;23;20027;-92
2022/08/11 14:05:48;;;;;;;3.97;2.10;;;;;;;33.44;27.04;101177.13;7674571;23;20359;-92
2022/08/11 14:08:52;;;;;;;2.58;1.90;;;;;;;33.46;27.08;101174.16;7702479;23;20025;-93
2022/08/11 14:15:32;;;;;;;3.47;1.92;;;;;;;33.46;27.21;101179.53;7702175;23;20020;-93
2022/08/11 14:18:41;;;;;;;2.50;2.00;;;;;;;33.39;25.80;101171.72;7701944;23;20023;-93
2022/08/11 14:25:11;;;;;;;2.25;2.05;;;;;;;33.30;25.52;101165.22;7702346;23;20442;-92
2022/08/11 14:28:13;;;;;;;4.43;2.10;;;;;;;33.50;25.74;101158.38;7701215;23;20115;-91
2022/08/11 14:31:37;;;;;;;1.98;1.85;;;;;;;33.76;26.23;101149.41;7702010;23;20012;-91
2022/08/11 14:34:42;;;;;;;2.90;1.90;;;;;;;34.02;27.11;101149.53;7702618;23;20021;-91
2022/08/11 14:37:46;;;;;;;3.10;2.15;;;;;;;34.14;27.32;101155.50;7675733;23;20463;-92
2022/08/11 14:47:35;;;;;;;3.33;1.80;;;;;;;34.10;26.07;101154.41;7701567;23;20017;-92
2022/08/11 14:50:38;;;;;;;4.43;1.92;;;;;;;34.13;23.97;101153.06;7674658;23;20020;-92
2022/08/11 14:53:40;;;;;;;1.77;1.67;;;;;;;34.11;25.29;101153.34;7674899;23;20024;-92
2022/08/11 14:57:02;;;;;;;3.05;1.70;;;;;;;34.21;24.46;101144.50;7671459;23;20020;-93
2022/08/11 15:00:07;;;;;;;2.88;1.90;;;;;;;34.37;24.81;101140.78;7701067;23;20355;-92
2022/08/11 15:03:14;;;;;;;4.05;1.90;;;;;;;34.40;25.09;101136.75;7701668;23;20013;-92
2022/08/11 15:06:16;;;;;;;3.60;1.60;;;;;;;34.54;24.80;101135.19;7675271;23;20040;-92
2022/08/11 15:09:18;;;;;;;6.38;1.80;;;;;;;34.58;23.06;101135.44;7701102;23;20585;-92
2022/08/11 15:12:21;;;;;;;2.58;2.00;;;;;;;34.67;23.58;101133.88;7701576;23;20021;-92
2022/08/11 15:18:57;;;;;;;2.53;1.85;;;;;;;34.58;24.97;101124.69;7673975;23;20501;-91
2022/08/11 15:25:28;;;;;;;1.67;1.55;;;;;;;34.71;23.83;101125.00;7700633;23;20047;-91
2022/08/11 15:39:15;;;;;;;3.15;1.70;;;;;;;34.93;23.63;101105.06;7701224;23;20028;-92
2022/08/11 15:45:51;;;;;;;3.83;1.88;;;;;;;34.86;23.18;101099.97;7688226;23;20019;-92
2022/08/11 15:49:07;;;;;;;7.75;2.28;;;;;;;34.94;23.76;101096.75;7699996;23;20056;-92
2022/08/11 15:52:14;;;;;;;3.58;2.10;;;;;;;34.89;23.72;101101.31;7674168;23;20174;-91
2022/08/11 15:55:17;;;;;;;2.08;1.70;;;;;;;34.91;24.37;101096.47;7675189;23;20462;-92
2022/08/11 16:05:12;;;;;;;2.20;2.00;;;;;;;34.80;25.46;101084.09;7701436;23;20021;-92
2022/08/11 16:08:39;;;;;;;2.38;1.98;;;;;;;34.83;24.73;101070.09;7673447;23;20112;-92
2022/08/11 16:11:44;;;;;;;2.33;2.13;;;;;;;34.92;24.48;101074.66;7673913;23;20031;-92
2022/08/11 16:18:18;;;;;;;3.33;2.13;;;;;;;35.04;23.10;101062.81;7699693;23;20027;-92
2022/08/11 16:21:24;;;;;;;2.88;1.65;;;;;;;34.99;23.94;101065.53;7700796;23;20031;-92
2022/08/11 16:24:43;;;;;;;2.55;1.75;;;;;;;35.00;23.93;101061.75;7698834;23;20027;-92
2022/08/11 16:28:08;;;;;;;2.80;1.90;;;;;;;35.00;24.25;101057.16;7699142;23;20027;-93
2022/08/11 16:31:15;;;;;;;;;;;;;;;35.11;24.21;101058.81;7678444;23;20460;-93
2022/08/11 16:41:09;;;;;;;2.28;1.75;;;;;;;35.53;24.32;101054.91;7704000;23;20558;-92
2022/08/11 16:47:40;;;;;;;2.63;1.90;;;;;;;35.65;23.57;101057.28;7702401;23;20020;-93
2022/08/11 16:51:04;;;;;;;2.90;1.83;;;;;;;35.56;23.56;101045.47;7703598;23;20024;-93
2022/08/11 16:54:06;;;;;;;1.77;1.63;;;;;;;35.55;23.18;101046.53;7702294;23;20443;-91
2022/08/11 17:00:36;;;;;;;1.70;1.60;;;;;;;35.42;22.84;101052.50;7702819;23;20021;-90
2022/08/11 17:14:56;;;;;;;2.28;1.90;;;;;;;35.15;23.04;101041.00;7624372;23;20034;-90
2022/08/11 17:18:01;;;;;;;3.80;1.63;;;;;;;35.09;24.61;101039.44;7527273;23;20109;-90
2022/08/11 17:21:04;;;;;;;6.55;2.13;;;;;;;35.01;24.39;101041.84;7549885;23;20358;-90
2022/08/11 17:24:13;;;;;;;3.20;1.60;;;;;;;34.84;24.48;101034.88;7551750;23;20022;-90
2022/08/11 17:27:18;;;;;;;5.25;1.90;;;;;;;34.67;23.64;101045.91;7587598;23;20030;-90
2022/08/11 17:35:27;;;;;;;2.10;1.67;;;;;;;34.57;24.66;101037.03;7585349;23;20516;-90
2022/08/11 17:37:06;;;;;;;2.38;2.13;;;;;;;34.21;24.71;101035.13;7584181;23;20487;-90
2022/08/11 17:40:11;;;;;;;1.90;1.80;;;;;;;34.03;25.75;101031.03;7583654;23;20595;-90
2022/08/11 17:49:58;;;;;;;2.10;1.80;;;;;;;33.51;25.99;101026.53;7583915;23;20037;-90
2022/08/11 18:00:02;;;;;;;2.63;2.10;;;;;;;32.47;28.77;101033.34;7699716;23;20032;-89
2022/08/11 18:03:32;;;;;;;3.40;1.70;;;;;;;32.07;29.06;101031.91;7699207;23;20565;-91
2022/08/11 18:06:36;;;;;;;2.85;2.10;;;;;;;31.38;29.58;101025.19;7697182;23;20325;-91
